Bandırma Airport

LTBG · 巴勒克埃西尔省, 土耳其

罗盘
风向 的 Bandırma Airport 18/36
风: 1 kt, 1 beaufort

1 kt

改变
0 ft 1.000 2.000 3.000 4.000 5.000
没有观察到明显的云
METAR LTBG 020515Z VRB01KT 1400 R36/P1500D R18/P1500N BR NSC 09/09 Q1012 RESHRA NOSIG RMK RWY18 04004KT

METAR Bandırma Airport - LTBG/BDM

Bandırma Airport是,土耳其中的中型机场。 该机场位于纬度40,31820和经度27,97775。 该机场有一条跑道: 18/36. 本场的ICAO机场代码为LTBG。 该机场的IATA代码为BDM。 机场在Istanbul FIR中。

该航空气象观测是针对Bandırma Airport在2024年3月2日 08:15, 当地时间进行的。

机场观察

可变方向的风很小或没有风。

可见度为1,4 km。 跑道36的能见度为多于 1.500 m 和 减少。 跑道18的能见度为多于 1.500 m 和 没有趋势。

有没有观察到明显的云。 没有观察到天花板。

当前天气为薄雾。 温度和风寒是9 °C。 露点为9 °C,相对湿度为100%。 海平面上的气压为1012 hPa (QNH)。 最近是阵雨 雨。

白天

今天,太阳从07:39升起,在19:00降落。 这适用于Bandırma Airport,世界夏令时可能有所不同。 当地时间与世界标准时间之间的时差为+3 小时。 当前,没有夏令时有效。

公司介绍

我们没有关于这个机场的公司信息。

体会

到Vliegles.nl去找飞行课程,跳伞和其他飞行体验。 浏览页面,了解Bandırma Airport附近所有可用的活动。 你也可以使用搜索功能来寻找你所在地附近的特定飞行课程、跳伞或其他飞行体验。

警示语

跑道36处的能见度为多于 1.500 m 和 减少。
跑道18处的能见度为多于 1.500 m 和 没有趋势。

跑道

Id 标题 侧风 逆风 侧风 %
18/36 180°-360° 1 kt 0 %

逆风成分最大的方向会被突出显示,并用于横风计算。 这并不一定意味着这个方向在使用。

乌云

- NSC 没有观察到明显的云

温度 & 天气

天气 薄雾
最近的 阵雨 雨
温度 9 °C
露点 9 °C
相对湿度 100%
Kp-index 1 (0-9)

评论

RWY18 04004KT

白天

日出
07:39
中午
13:20
日落
19:00 (10:06)

小工具

你想在你的网站上有一个关于Bandırma Airport的当前航空天气(METAR)的小部件吗?

显示HTML代码
?>